Česky Dansk Deutsch English Español Suomi Français Magyar Italiano Nederlands norsk Polski Português svenska Türkçe

 

Het Weer

Moscow / Sheremet'Ye (Rusland)

17:30, 22 augustus 2016 (GMT)

NWNNE
WE
SWSSE
Home            
Moscow / Sheremet'Ye Moscow / Vnukovo Moscow / Domodedovo Tver Brjansk Vologda Nizhny Novgorod/Strigino Velikie Luki Vitebsk Voronez Tot'Ma Gomel' Penza St. Peterburg Minsk Kharkiv Loshitsa / Minsk International 1 Tartu/Ulenurme Ulyanovsk Kazan' Saratov / Tsentralny Boryspil Hostomel

Om een weerknop op uw website of weblog te plaatsen, copieer onderstaande code en plak die in uw pagina. In het eerste vakje staat HTML-code, in het tweede vakje UBB-code.


Add to Google

Details

Wind speed:3 bf, 7.8 kn, 4 m/s, 8.9 miles/h, 14.4 km/h
Wind direction:ESE, 110°
Visibility:Greater than 10000 m, 10 km, 32800 ft, 6.2 miles
Clouds:CAVOC
Temperature:22°C, 72°F
Gefühlte Temperatur:23°C, 73°F
Dew-point:18°C, 64°F
Atmospheric pressure:1023 hPa, 767.3 mmHg, 30.21 inHg, 1.010 atm
Relative humidity:78.1 %
METAR:UUEE 221730Z 11004MPS CAVOK 22/18 Q1023 R06L/CLRD62 R06R/CLRD62 NOSIG

Snelkoppelingen

Actuele weersinformatie van de hele wereld. Voeg locaties toe met het plus (+) symbool. Deze snelkoppelingen kunnen worden toegevoegd aan Google.

Lid van de Technetium groep

website free tracking
StatCounter NetStat W3C Validator

25-11-2020 08:23:38
astro.technetium.be money.technetium.be phote.technetium.be tafeltennistafel.technetium.be www.ligfiets.net